createdAt,value
2024-04-09T00:00:15.384Z,94006.38
2024-04-09T00:02:42.835Z,94004.38
2024-04-09T00:05:10.427Z,93997.94
2024-04-09T00:07:39.511Z,94000.06
2024-04-09T00:10:08.170Z,93992.84
2024-04-09T00:12:35.678Z,93988.25
2024-04-09T00:15:09.119Z,93999.56
2024-04-09T00:17:58.419Z,93985.81
2024-04-09T00:20:26.482Z,93990.28
2024-04-09T00:22:56.990Z,93982.22
2024-04-09T00:25:24.321Z,93985.81
2024-04-09T00:27:53.930Z,93991.50
2024-04-09T00:30:22.902Z,93986.78
2024-04-09T00:32:53.125Z,93980.22
2024-04-09T00:35:22.564Z,93979.69
2024-04-09T00:37:52.939Z,93977.91
2024-04-09T00:40:21.928Z,93976.44
2024-04-09T00:42:51.048Z,93981.03
2024-04-09T00:45:19.598Z,93978.78
2024-04-09T00:47:48.401Z,93976.38
2024-04-09T00:50:21.069Z,93981.91
2024-04-09T00:52:50.082Z,93982.03
2024-04-09T00:55:17.765Z,93981.63
2024-04-09T00:57:50.017Z,93970.28
2024-04-09T01:00:17.488Z,93980.25
2024-04-09T01:02:45.313Z,93977.69
2024-04-09T01:05:12.724Z,93978.63
2024-04-09T01:07:43.828Z,93975.81
2024-04-09T01:10:11.800Z,93974.44
2024-04-09T01:12:39.229Z,93974.59
2024-04-09T01:15:07.062Z,93969.63
2024-04-09T01:17:35.925Z,93975.13
2024-04-09T01:20:04.098Z,93976.50
2024-04-09T01:22:34.121Z,93975.41
2024-04-09T01:25:03.690Z,93973.53
2024-04-09T01:27:33.360Z,93979.63
2024-04-09T01:30:01.866Z,93977.34
2024-04-09T01:32:29.107Z,93974.88
2024-04-09T01:34:56.581Z,93973.97
2024-04-09T01:37:26.257Z,93976.41
2024-04-09T01:39:56.276Z,93971.28
2024-04-09T01:42:23.853Z,93974.81
2024-04-09T01:44:51.317Z,93968.47
2024-04-09T01:47:18.726Z,93966.72
2024-04-09T01:49:46.645Z,93960.94
2024-04-09T01:52:13.941Z,93963.78
2024-04-09T01:54:44.457Z,93965.78
2024-04-09T01:57:17.715Z,93961.47
2024-04-09T01:59:45.308Z,93959.47
2024-04-09T02:02:14.723Z,93965.75
2024-04-09T02:04:42.115Z,93957.84
2024-04-09T02:07:09.727Z,93963.91
2024-04-09T02:09:37.118Z,93963.63
2024-04-09T02:12:05.179Z,93962.44
2024-04-09T02:14:35.345Z,93955.13
2024-04-09T02:17:03.088Z,93954.88
2024-04-09T02:19:31.006Z,93952.44
2024-04-09T02:21:58.311Z,93957.03
2024-04-09T02:24:26.504Z,93959.31
2024-04-09T02:26:54.312Z,93958.25
2024-04-09T02:29:23.064Z,93966.72
2024-04-09T02:31:53.470Z,93961.19
2024-04-09T02:34:25.018Z,93964.28
2024-04-09T02:36:52.855Z,93956.63
2024-04-09T02:39:20.870Z,93953.53
2024-04-09T02:41:48.360Z,93952.56
2024-04-09T02:44:15.669Z,93951.09
2024-04-09T02:46:42.956Z,93950.28
2024-04-09T02:49:13.042Z,93954.47
2024-04-09T02:51:41.226Z,93946.94
2024-04-09T02:54:08.935Z,93952.97
2024-04-09T02:56:36.379Z,93952.97
2024-04-09T02:59:04.692Z,93946.09
2024-04-09T03:01:32.452Z,93959.00
2024-04-09T03:04:01.364Z,93956.44
2024-04-09T03:06:31.693Z,93957.81
2024-04-09T03:08:59.771Z,93955.88
2024-04-09T03:11:27.979Z,93959.53
2024-04-09T03:13:55.509Z,93965.56
2024-04-09T03:16:24.006Z,93960.03
2024-04-09T03:18:51.859Z,93953.06
2024-04-09T03:21:19.411Z,93963.00
2024-04-09T03:23:49.506Z,93961.50
2024-04-09T03:26:16.954Z,93962.97
2024-04-09T03:28:44.372Z,93966.31
2024-04-09T03:31:11.748Z,93969.69
2024-04-09T03:33:39.410Z,93971.03
2024-04-09T03:36:09.397Z,93962.78
2024-04-09T03:38:36.949Z,93964.69
2024-04-09T03:41:08.090Z,93972.06
2024-04-09T03:43:35.934Z,93976.75
2024-04-09T03:46:05.836Z,93970.72
2024-04-09T03:48:33.392Z,93968.69
2024-04-09T03:51:00.867Z,93959.88
2024-04-09T03:53:28.235Z,93964.59
2024-04-09T03:55:56.454Z,93961.63
2024-04-09T03:58:29.732Z,93970.09
2024-04-09T04:00:58.440Z,93980.03
2024-04-09T04:03:26.753Z,93980.97
2024-04-09T04:05:54.631Z,93987.16
2024-04-09T04:08:23.193Z,93984.44
2024-04-09T04:10:54.380Z,93988.75
2024-04-09T04:13:27.249Z,93996.56
2024-04-09T04:15:59.458Z,93988.50
2024-04-09T04:18:27.075Z,93986.88
2024-04-09T04:20:54.739Z,93987.31
2024-04-09T04:23:22.239Z,93988.78
2024-04-09T04:26:01.412Z,93990.16
2024-04-09T04:28:31.611Z,94000.78
2024-04-09T04:30:59.253Z,93992.75
2024-04-09T04:33:26.902Z,93989.78
2024-04-09T04:35:54.672Z,93996.13
2024-04-09T04:38:22.180Z,93984.97
2024-04-09T04:40:49.750Z,93992.66
2024-04-09T04:43:17.539Z,93984.34
2024-04-09T04:45:48.604Z,93989.59
2024-04-09T04:48:16.438Z,94001.72
2024-04-09T04:50:43.822Z,93991.63
2024-04-09T04:53:11.275Z,93991.91
2024-04-09T04:55:38.940Z,93991.34
2024-04-09T04:58:06.919Z,93996.31
2024-04-09T05:00:36.649Z,93996.97
2024-04-09T05:03:06.957Z,93993.44
2024-04-09T05:05:35.448Z,94000.78
2024-04-09T05:08:03.040Z,94000.66
2024-04-09T05:10:30.531Z,93999.91
2024-04-09T05:12:57.931Z,93998.38
2024-04-09T05:15:25.710Z,93995.19
2024-04-09T05:17:53.496Z,94003.34
2024-04-09T05:20:28.386Z,94001.66
2024-04-09T05:22:58.189Z,94003.22
2024-04-09T05:25:28.649Z,94007.34
2024-04-09T05:27:56.414Z,93994.81
2024-04-09T05:30:24.227Z,93999.41
2024-04-09T05:32:51.866Z,93996.63
2024-04-09T05:35:21.665Z,94002.19
2024-04-09T05:37:51.919Z,93998.44
2024-04-09T05:40:19.575Z,93990.78
2024-04-09T05:42:50.133Z,93989.56
2024-04-09T05:45:20.742Z,93986.63
2024-04-09T05:47:48.441Z,93989.09
2024-04-09T05:50:16.096Z,93993.53
2024-04-09T05:52:43.438Z,93987.13
2024-04-09T05:55:14.192Z,93985.91
2024-04-09T05:57:42.592Z,93990.31
2024-04-09T06:00:15.968Z,93990.81
2024-04-09T06:02:45.612Z,93991.97
2024-04-09T06:05:13.161Z,93986.41
2024-04-09T06:07:40.444Z,93985.13
2024-04-09T06:10:08.071Z,93989.63
2024-04-09T06:12:38.295Z,93989.00
2024-04-09T06:15:07.070Z,93991.78
2024-04-09T06:17:34.588Z,93997.25
2024-04-09T06:20:02.156Z,93996.75
2024-04-09T06:22:29.555Z,94005.44
2024-04-09T06:24:57.967Z,94003.16
2024-04-09T06:27:25.637Z,93998.31
2024-04-09T06:29:56.563Z,94000.69
2024-04-09T06:32:24.104Z,93999.84
2024-04-09T06:34:52.093Z,93998.66
2024-04-09T06:37:19.575Z,94003.31
2024-04-09T06:39:48.124Z,93998.06
2024-04-09T06:42:15.997Z,93996.72
2024-04-09T06:44:43.364Z,93994.38
2024-04-09T06:47:13.632Z,93994.28
2024-04-09T06:49:44.538Z,93994.00
2024-04-09T06:52:12.227Z,93996.63
2024-04-09T06:54:39.877Z,93997.69
2024-04-09T06:57:07.515Z,93996.25
2024-04-09T06:59:34.889Z,93995.31
2024-04-09T07:02:03.080Z,93991.44
2024-04-09T07:04:33.337Z,93995.66
2024-04-09T07:07:01.478Z,93986.44
2024-04-09T07:09:29.061Z,93985.72
2024-04-09T07:11:56.432Z,93989.66
2024-04-09T07:14:23.892Z,93984.09
2024-04-09T07:16:51.427Z,93982.19
2024-04-09T07:19:18.801Z,93973.75
2024-04-09T07:21:50.384Z,93979.75
2024-04-09T07:24:17.878Z,93984.88
2024-04-09T07:26:45.352Z,93984.81
2024-04-09T07:29:14.483Z,93981.94
2024-04-09T07:31:42.823Z,93991.44
2024-04-09T07:34:10.755Z,93983.94
2024-04-09T07:36:39.075Z,93981.06
2024-04-09T07:39:09.554Z,93966.25
2024-04-09T07:41:37.051Z,93981.41
2024-04-09T07:44:04.650Z,93970.03
2024-04-09T07:46:31.963Z,93980.13
2024-04-09T07:49:01.663Z,93974.47
2024-04-09T07:51:30.094Z,93978.78
2024-04-09T07:53:57.565Z,93977.44
2024-04-09T07:56:27.997Z,93976.63
2024-04-09T07:58:55.477Z,93972.44
2024-04-09T08:01:22.963Z,93969.00
2024-04-09T08:03:50.512Z,93971.44
2024-04-09T08:06:18.462Z,93962.34
2024-04-09T08:08:48.542Z,93952.84
2024-04-09T08:11:17.155Z,93951.94
2024-04-09T08:13:47.348Z,93948.09
2024-04-09T08:16:15.177Z,93949.63
2024-04-09T08:18:43.153Z,93947.66
2024-04-09T08:21:11.620Z,93947.91
2024-04-09T08:23:39.471Z,93943.88
2024-04-09T08:26:07.036Z,93945.50
2024-04-09T08:28:34.574Z,93950.91
2024-04-09T08:31:07.034Z,93945.47
2024-04-09T08:33:36.014Z,93943.41
2024-04-09T08:36:03.979Z,93945.22
2024-04-09T08:38:32.452Z,93943.22
2024-04-09T08:40:59.964Z,93931.63
2024-04-09T08:43:28.515Z,93940.25
2024-04-09T08:45:58.528Z,93932.69
2024-04-09T08:48:29.728Z,93927.81
2024-04-09T08:50:58.785Z,93922.13
2024-04-09T08:53:30.413Z,93925.41
2024-04-09T08:55:57.880Z,93918.94
2024-04-09T08:58:25.222Z,93920.63
2024-04-09T09:00:52.692Z,93910.13
2024-04-09T09:03:20.265Z,93918.34
2024-04-09T09:06:01.825Z,93914.19
2024-04-09T09:08:40.304Z,93910.31
2024-04-09T09:11:08.600Z,93910.25
2024-04-09T09:13:36.204Z,93901.44
2024-04-09T09:16:07.549Z,93906.94
2024-04-09T09:18:35.318Z,93904.16
2024-04-09T09:21:06.685Z,93898.53
2024-04-09T09:23:35.296Z,93899.06
2024-04-09T09:26:03.813Z,93895.41
2024-04-09T09:28:31.249Z,93885.47
2024-04-09T09:30:58.552Z,93885.47
2024-04-09T09:33:33.523Z,93878.59
2024-04-09T09:36:01.187Z,93874.34
2024-04-09T09:38:31.788Z,93877.69
2024-04-09T09:41:00.234Z,93870.00
2024-04-09T09:43:28.131Z,93874.72
2024-04-09T09:45:56.377Z,93869.25
2024-04-09T09:48:27.717Z,93863.88
2024-04-09T09:50:55.712Z,93863.72
2024-04-09T09:53:23.795Z,93856.91
2024-04-09T09:55:57.038Z,93856.47
2024-04-09T09:58:27.136Z,93857.06
2024-04-09T10:00:55.031Z,93853.41
2024-04-09T10:03:23.147Z,93840.69
2024-04-09T10:05:50.878Z,93851.06
2024-04-09T10:08:21.746Z,93849.69
2024-04-09T10:10:50.593Z,93843.88
2024-04-09T10:13:25.577Z,93832.19
2024-04-09T10:15:57.365Z,93837.50
2024-04-09T10:18:36.294Z,93831.69
2024-04-09T10:21:05.339Z,93835.06
2024-04-09T10:23:36.673Z,93834.00
2024-04-09T10:26:07.065Z,93831.28
2024-04-09T10:28:37.921Z,93830.72
2024-04-09T10:31:06.393Z,93820.16
2024-04-09T10:33:35.284Z,93821.31
2024-04-09T10:36:07.170Z,93820.72
2024-04-09T10:38:35.267Z,93815.09
2024-04-09T10:41:02.803Z,93819.19
2024-04-09T10:43:30.500Z,93807.88
2024-04-09T10:46:08.328Z,93815.19
2024-04-09T10:48:42.105Z,93809.53
2024-04-09T10:51:10.273Z,93809.00
2024-04-09T10:53:38.120Z,93808.03
2024-04-09T10:56:06.104Z,93808.25
2024-04-09T10:58:38.631Z,93800.72
2024-04-09T11:01:14.179Z,93796.75
2024-04-09T11:03:42.088Z,93791.06
2024-04-09T11:06:09.662Z,93789.75
2024-04-09T11:08:37.869Z,93785.38
2024-04-09T11:11:05.476Z,93787.13
2024-04-09T11:13:33.406Z,93781.50
2024-04-09T11:16:03.955Z,93786.06
2024-04-09T11:18:34.529Z,93778.78
2024-04-09T11:21:03.011Z,93776.34
2024-04-09T11:23:33.558Z,93769.50
2024-04-09T11:26:03.385Z,93772.06
2024-04-09T11:28:32.525Z,93762.00
2024-04-09T11:31:01.571Z,93760.88
2024-04-09T11:33:29.880Z,93760.63
2024-04-09T11:36:05.213Z,93756.06
2024-04-09T11:38:37.746Z,93753.22
2024-04-09T11:41:05.025Z,93746.66
2024-04-09T11:43:32.551Z,93755.47
2024-04-09T11:46:00.542Z,93743.38
2024-04-09T11:48:28.149Z,93740.59
2024-04-09T11:50:55.659Z,93739.75
2024-04-09T11:53:25.867Z,93735.47
2024-04-09T11:55:55.112Z,93734.22
2024-04-09T11:58:22.725Z,93732.00
2024-04-09T12:00:50.262Z,93735.63
2024-04-09T12:03:17.958Z,93730.97
2024-04-09T12:05:45.761Z,93730.16
2024-04-09T12:08:13.221Z,93714.91
2024-04-09T12:10:43.260Z,93716.47
2024-04-09T12:13:10.724Z,93712.13
2024-04-09T12:15:38.068Z,93707.25
2024-04-09T12:18:05.909Z,93715.03
2024-04-09T12:20:33.540Z,93704.94
2024-04-09T12:23:00.955Z,93700.00
2024-04-09T12:25:29.155Z,93697.31
2024-04-09T12:27:59.244Z,93699.50
2024-04-09T12:30:26.852Z,93692.50
2024-04-09T12:32:54.422Z,93687.38
2024-04-09T12:35:23.442Z,93692.81
2024-04-09T12:37:51.442Z,93686.59
2024-04-09T12:40:18.910Z,93679.91
2024-04-09T12:42:46.431Z,93675.91
2024-04-09T12:45:17.255Z,93681.97
2024-04-09T12:47:44.873Z,93674.75
2024-04-09T12:50:16.107Z,93669.09
2024-04-09T12:52:43.558Z,93671.66
2024-04-09T12:55:11.910Z,93668.34
2024-04-09T12:57:39.414Z,93662.41
2024-04-09T13:00:30.782Z,93654.31
2024-04-09T13:03:02.216Z,93661.00
2024-04-09T13:05:29.916Z,93653.56
2024-04-09T13:07:57.389Z,93650.22
2024-04-09T13:10:24.778Z,93645.81
2024-04-09T13:12:52.299Z,93633.28
2024-04-09T13:17:50.439Z,93640.13
2024-04-09T13:20:20.486Z,93636.69
2024-04-09T13:22:47.885Z,93630.22
2024-04-09T13:25:15.280Z,93636.84
2024-04-09T13:27:42.620Z,93629.09
2024-04-09T13:30:10.688Z,93629.25
2024-04-09T13:32:38.266Z,93632.19
2024-04-09T13:35:07.018Z,93628.38
2024-04-09T13:37:38.780Z,93627.09
2024-04-09T13:40:07.174Z,93619.88
2024-04-09T13:42:41.057Z,93637.41
2024-04-09T13:45:08.866Z,93625.97
2024-04-09T13:47:36.352Z,93626.88
2024-04-09T13:50:06.985Z,93628.06
2024-04-09T13:52:37.171Z,93629.56
2024-04-09T13:55:08.503Z,93629.59
2024-04-09T13:57:35.958Z,93623.78
2024-04-09T14:00:09.011Z,93610.81
2024-04-09T14:02:43.893Z,93624.47
2024-04-09T14:05:12.201Z,93626.03
2024-04-09T14:07:42.642Z,93625.19
2024-04-09T14:10:10.252Z,93626.41
2024-04-09T14:12:37.874Z,93628.81
2024-04-09T14:15:10.459Z,93612.41
2024-04-09T14:17:38.977Z,93617.22
2024-04-09T14:20:10.548Z,93606.16
2024-04-09T14:22:38.404Z,93614.44
2024-04-09T14:25:09.914Z,93603.22
2024-04-09T14:27:38.895Z,93602.56
2024-04-09T14:30:07.571Z,93600.50
2024-04-09T14:32:35.160Z,93602.44
2024-04-09T14:35:02.684Z,93599.78
2024-04-09T14:37:30.335Z,93600.88
2024-04-09T14:39:57.688Z,93594.53
2024-04-09T14:42:27.736Z,93589.19
2024-04-09T14:44:55.080Z,93588.44
2024-04-09T14:47:22.585Z,93594.53
2024-04-09T14:49:51.273Z,93591.66
2024-04-09T14:52:18.713Z,93589.31
2024-04-09T14:54:50.033Z,93584.75
2024-04-09T14:57:18.250Z,93583.97
2024-04-09T14:59:49.294Z,93581.13
2024-04-09T15:02:16.734Z,93578.41
2024-04-09T15:04:44.302Z,93584.66
2024-04-09T15:07:11.710Z,93582.31
2024-04-09T15:09:39.810Z,93584.63
2024-04-09T15:12:07.997Z,93582.34
2024-04-09T15:14:35.806Z,93580.19
2024-04-09T15:17:05.888Z,93577.22
2024-04-09T15:19:34.578Z,93579.47
2024-04-09T15:22:02.174Z,93584.22
2024-04-09T15:24:29.533Z,93578.25
2024-04-09T15:26:57.697Z,93581.97
2024-04-09T15:29:25.989Z,93577.97
2024-04-09T15:31:53.357Z,93579.25
2024-04-09T15:34:23.486Z,93572.53
2024-04-09T15:36:51.776Z,93578.94
2024-04-09T15:39:19.065Z,93579.63
2024-04-09T15:41:46.468Z,93586.22
2024-04-09T15:44:13.811Z,93584.16
2024-04-09T15:46:41.310Z,93581.19
2024-04-09T15:49:08.851Z,93577.63
2024-04-09T15:51:38.911Z,93579.81
2024-04-09T15:54:06.567Z,93583.06
2024-04-09T15:56:34.393Z,93582.50
2024-04-09T15:59:04.446Z,93582.19
2024-04-09T16:01:33.771Z,93577.56
2024-04-09T16:04:01.176Z,93571.06
2024-04-09T16:06:29.528Z,93578.94
2024-04-09T16:08:59.464Z,93580.81
2024-04-09T16:11:27.037Z,93578.91
2024-04-09T16:13:54.735Z,93588.00
2024-04-09T16:16:22.072Z,93585.38
2024-04-09T16:18:49.776Z,93592.56
2024-04-09T16:21:17.170Z,93588.56
2024-04-09T16:23:44.429Z,93597.22
2024-04-09T16:26:15.363Z,93590.66
2024-04-09T16:28:43.820Z,93595.00
2024-04-09T16:31:11.243Z,93603.38
2024-04-09T16:33:38.717Z,93605.44
2024-04-09T16:36:07.601Z,93607.75
2024-04-09T16:38:35.396Z,93608.03
2024-04-09T16:41:04.047Z,93603.72
2024-04-09T16:43:34.176Z,93605.22
2024-04-09T16:46:01.581Z,93608.44
2024-04-09T16:48:29.023Z,93610.50
2024-04-09T16:50:58.655Z,93612.28
2024-04-09T16:53:26.240Z,93611.56
2024-04-09T16:55:59.035Z,93621.09
2024-04-09T16:58:26.489Z,93625.38
2024-04-09T17:01:15.040Z,93627.63
2024-04-09T17:03:42.482Z,93629.28
2024-04-09T17:06:09.929Z,93631.50
2024-04-09T17:08:37.425Z,93633.72
2024-04-09T17:11:07.335Z,93622.72
2024-04-09T17:13:36.573Z,93639.38
2024-04-09T17:16:07.970Z,93636.53
2024-04-09T17:18:35.664Z,93634.03
2024-04-09T17:21:03.402Z,93646.06
2024-04-09T17:23:31.197Z,93654.78
2024-04-09T17:26:01.700Z,93647.91
2024-04-09T17:28:29.716Z,93656.19
2024-04-09T17:30:57.597Z,93644.19
2024-04-09T17:33:27.575Z,93654.13
2024-04-09T17:35:54.984Z,93660.16
2024-04-09T17:38:22.525Z,93655.13
2024-04-09T17:40:50.022Z,93660.78
2024-04-09T17:43:17.335Z,93665.00
2024-04-09T17:45:45.743Z,93667.22
2024-04-09T17:48:13.476Z,93670.09
2024-04-09T17:50:43.802Z,93669.91
2024-04-09T17:53:11.219Z,93667.31
2024-04-09T17:55:39.885Z,93666.94
2024-04-09T17:58:08.176Z,93673.94
2024-04-09T18:00:35.704Z,93668.59
2024-04-09T18:03:23.318Z,93672.97
2024-04-09T18:05:54.638Z,93674.38
2024-04-09T18:08:22.285Z,93673.19
2024-04-09T18:10:49.971Z,93674.00
2024-04-09T18:13:17.411Z,93680.78
2024-04-09T18:15:47.384Z,93678.78
2024-04-09T18:18:14.750Z,93675.56
2024-04-09T18:20:42.142Z,93680.13
2024-04-09T18:23:12.763Z,93676.47
2024-04-09T18:25:40.248Z,93676.06
2024-04-09T18:28:08.931Z,93679.06
2024-04-09T18:30:36.270Z,93676.84
2024-04-09T18:33:05.877Z,93674.81
2024-04-09T18:35:36.188Z,93675.41
2024-04-09T18:38:03.826Z,93678.41
2024-04-09T18:40:33.940Z,93676.28
2024-04-09T18:43:01.366Z,93682.09
2024-04-09T18:45:28.705Z,93679.94
2024-04-09T18:47:56.252Z,93680.38
2024-04-09T18:50:23.733Z,93681.19
2024-04-09T18:52:51.236Z,93683.59
2024-04-09T18:55:18.507Z,93681.38
2024-04-09T18:57:48.506Z,93680.00
2024-04-09T19:00:17.415Z,93676.38
2024-04-09T19:02:44.797Z,93669.59
2024-04-09T19:05:12.105Z,93672.59
2024-04-09T19:07:39.450Z,93671.97
2024-04-09T19:10:07.793Z,93670.97
2024-04-09T19:12:35.107Z,93676.97
2024-04-09T19:15:05.568Z,93681.56
2024-04-09T19:17:33.211Z,93687.19
2024-04-09T19:20:00.780Z,93685.97
2024-04-09T19:22:28.338Z,93679.19
2024-04-09T19:24:55.707Z,93681.56
2024-04-09T19:27:23.152Z,93685.72
2024-04-09T19:29:50.627Z,93687.91
2024-04-09T19:32:21.047Z,93688.22
2024-04-09T19:34:48.768Z,93691.53
2024-04-09T19:37:17.203Z,93690.66
2024-04-09T19:39:44.566Z,93694.88
2024-04-09T19:42:12.467Z,93694.47
2024-04-09T19:44:39.761Z,93696.63
2024-04-09T19:47:07.203Z,93693.44
2024-04-09T19:49:37.274Z,93696.59
2024-04-09T19:52:05.266Z,93697.34
2024-04-09T19:54:32.884Z,93696.63
2024-04-09T19:57:00.230Z,93698.31
2024-04-09T19:59:28.778Z,93691.34
2024-04-09T20:01:56.379Z,93686.00
2024-04-09T20:04:26.310Z,93695.19
2024-04-09T20:06:57.307Z,93697.06
2024-04-09T20:09:27.514Z,93704.53
2024-04-09T20:11:58.172Z,93701.25
2024-04-09T20:14:26.051Z,93701.97
2024-04-09T20:16:54.353Z,93704.31
2024-04-09T20:19:21.956Z,93703.59
2024-04-09T20:21:52.554Z,93701.94
2024-04-09T20:24:22.645Z,93704.16
2024-04-09T20:26:50.372Z,93702.47
2024-04-09T20:29:18.174Z,93702.47
2024-04-09T20:31:47.383Z,93697.84
2024-04-09T20:34:15.295Z,93707.25
2024-04-09T20:36:48.306Z,93716.16
2024-04-09T20:39:20.725Z,93715.25
2024-04-09T20:41:51.015Z,93720.41
2024-04-09T20:44:18.514Z,93722.06
2024-04-09T20:46:46.259Z,93719.94
2024-04-09T20:49:13.941Z,93728.66
2024-04-09T20:51:41.498Z,93728.97
2024-04-09T20:54:08.919Z,93725.69
2024-04-09T20:56:36.354Z,93727.81
2024-04-09T20:59:06.526Z,93729.34
2024-04-09T21:01:35.444Z,93733.50
2024-04-09T21:04:03.847Z,93732.06
2024-04-09T21:06:32.631Z,93732.28
2024-04-09T21:09:00.266Z,93733.34
2024-04-09T21:11:27.681Z,93740.06
2024-04-09T21:13:55.223Z,93742.13
2024-04-09T21:16:26.014Z,93739.75
2024-04-09T21:18:53.704Z,93739.75
2024-04-09T21:21:21.825Z,93741.69
2024-04-09T21:23:49.412Z,93748.81
2024-04-09T21:26:16.739Z,93749.19
2024-04-09T21:28:44.795Z,93743.94
2024-04-09T21:31:12.177Z,93746.56
2024-04-09T21:33:42.372Z,93751.41
2024-04-09T21:36:10.275Z,93747.53
2024-04-09T21:38:37.743Z,93753.19
2024-04-09T21:41:05.633Z,93752.69
2024-04-09T21:43:33.339Z,93763.03
2024-04-09T21:46:00.706Z,93758.19
2024-04-09T21:48:29.199Z,93757.94
2024-04-09T21:50:59.454Z,93756.00
2024-04-09T21:53:26.944Z,93748.47
2024-04-09T21:55:54.657Z,93753.97
2024-04-09T21:58:22.140Z,93753.31
2024-04-09T22:00:56.545Z,93758.13
2024-04-09T22:03:24.236Z,93753.81
2024-04-09T22:05:53.776Z,93754.13
2024-04-09T22:08:24.803Z,93749.47
2024-04-09T22:10:52.673Z,93746.09
2024-04-09T22:13:19.996Z,93744.66
2024-04-09T22:15:47.308Z,93743.22
2024-04-09T22:18:15.013Z,93753.34
2024-04-09T22:20:43.083Z,93748.38
2024-04-09T22:23:15.766Z,93749.63
2024-04-09T22:25:47.358Z,93743.69
2024-04-09T22:28:14.826Z,93743.84
2024-04-09T22:30:42.519Z,93749.97
2024-04-09T22:33:10.147Z,93748.97
2024-04-09T22:35:37.947Z,93735.66
2024-04-09T22:38:05.530Z,93746.72
2024-04-09T22:40:33.537Z,93739.50
2024-04-09T22:43:04.009Z,93743.66
2024-04-09T22:45:31.406Z,93735.47
2024-04-09T22:47:58.848Z,93733.06
2024-04-09T22:50:26.308Z,93740.47
2024-04-09T22:52:53.874Z,93733.53
2024-04-09T22:55:21.393Z,93734.53
2024-04-09T22:57:48.735Z,93732.09
2024-04-09T23:00:19.098Z,93737.72
2024-04-09T23:02:46.518Z,93734.00
2024-04-09T23:05:14.075Z,93732.34
2024-04-09T23:07:41.532Z,93732.16
2024-04-09T23:10:08.976Z,93730.41
2024-04-09T23:12:36.829Z,93726.88
2024-04-09T23:15:04.872Z,93719.03
2024-04-09T23:17:35.023Z,93724.34
2024-04-09T23:20:03.096Z,93718.25
2024-04-09T23:22:30.455Z,93718.59
2024-04-09T23:24:57.789Z,93719.19
2024-04-09T23:27:25.216Z,93723.84
2024-04-09T23:29:52.515Z,93716.94
2024-04-09T23:32:20.406Z,93726.09
2024-04-09T23:34:50.508Z,93724.47
2024-04-09T23:37:18.855Z,93724.28
2024-04-09T23:39:46.245Z,93727.16
2024-04-09T23:42:13.605Z,93728.78
2024-04-09T23:44:41.030Z,93722.31
2024-04-09T23:47:08.619Z,93722.91
2024-04-09T23:49:36.151Z,93719.53
2024-04-09T23:52:06.238Z,93723.22
2024-04-09T23:54:33.842Z,93727.88
2024-04-09T23:57:01.213Z,93715.69
2024-04-09T23:59:28.727Z,93713.78
